sensor_id;sensor_type;location;lat;lon;timestamp;P1;durP1;ratioP1;P2;durP2;ratioP2
71423;SDS011;59240;51.370;-0.486;2023-04-03T00:01:56;5.00;;;0.57;;
71423;SDS011;59240;51.370;-0.486;2023-04-03T00:04:45;7.47;;;0.90;;
71423;SDS011;59240;51.370;-0.486;2023-04-03T00:07:36;8.57;;;0.70;;
71423;SDS011;59240;51.370;-0.486;2023-04-03T00:10:03;4.85;;;0.43;;
71423;SDS011;59240;51.370;-0.486;2023-04-03T00:12:31;7.07;;;0.60;;
71423;SDS011;59240;51.370;-0.486;2023-04-03T00:14:58;6.37;;;0.70;;
71423;SDS011;59240;51.370;-0.486;2023-04-03T00:17:24;8.68;;;0.65;;
71423;SDS011;59240;51.370;-0.486;2023-04-03T00:19:51;9.57;;;1.00;;
71423;SDS011;59240;51.370;-0.486;2023-04-03T00:22:18;7.43;;;1.02;;
71423;SDS011;59240;51.370;-0.486;2023-04-03T00:27:25;6.03;;;1.27;;
71423;SDS011;59240;51.370;-0.486;2023-04-03T00:29:51;4.97;;;0.60;;
71423;SDS011;59240;51.370;-0.486;2023-04-03T00:32:20;7.20;;;0.88;;
71423;SDS011;59240;51.370;-0.486;2023-04-03T00:34:48;5.50;;;0.45;;
71423;SDS011;59240;51.370;-0.486;2023-04-03T00:37:15;7.85;;;0.90;;
71423;SDS011;59240;51.370;-0.486;2023-04-03T00:39:41;6.87;;;0.97;;
71423;SDS011;59240;51.370;-0.486;2023-04-03T00:42:08;5.82;;;0.73;;
71423;SDS011;59240;51.370;-0.486;2023-04-03T00:47:03;6.10;;;0.70;;
71423;SDS011;59240;51.370;-0.486;2023-04-03T00:49:33;5.28;;;0.65;;
71423;SDS011;59240;51.370;-0.486;2023-04-03T00:52:01;8.37;;;0.80;;
71423;SDS011;59240;51.370;-0.486;2023-04-03T00:54:29;7.20;;;0.80;;
71423;SDS011;59240;51.370;-0.486;2023-04-03T00:56:56;6.32;;;0.82;;
71423;SDS011;59240;51.370;-0.486;2023-04-03T00:59:28;7.78;;;0.68;;
71423;SDS011;59240;51.370;-0.486;2023-04-03T01:01:59;6.53;;;0.60;;
71423;SDS011;59240;51.370;-0.486;2023-04-03T01:07:06;4.63;;;0.50;;
71423;SDS011;59240;51.370;-0.486;2023-04-03T01:09:38;4.88;;;0.73;;
71423;SDS011;59240;51.370;-0.486;2023-04-03T01:15:19;3.80;;;0.40;;
71423;SDS011;59240;51.370;-0.486;2023-04-03T01:17:50;7.07;;;0.60;;
71423;SDS011;59240;51.370;-0.486;2023-04-03T01:25:32;7.97;;;0.70;;
71423;SDS011;59240;51.370;-0.486;2023-04-03T01:27:59;8.68;;;0.80;;
71423;SDS011;59240;51.370;-0.486;2023-04-03T01:33:20;8.55;;;0.80;;
71423;SDS011;59240;51.370;-0.486;2023-04-03T01:35:47;6.80;;;0.65;;
71423;SDS011;59240;51.370;-0.486;2023-04-03T01:38:14;6.97;;;1.10;;
71423;SDS011;59240;51.370;-0.486;2023-04-03T01:40:41;4.78;;;0.90;;
71423;SDS011;59240;51.370;-0.486;2023-04-03T01:43:08;4.90;;;0.80;;
71423;SDS011;59240;51.370;-0.486;2023-04-03T01:45:35;6.80;;;1.00;;
71423;SDS011;59240;51.370;-0.486;2023-04-03T01:48:02;6.55;;;1.00;;
71423;SDS011;59240;51.370;-0.486;2023-04-03T01:50:29;7.85;;;1.25;;
71423;SDS011;59240;51.370;-0.486;2023-04-03T01:52:56;7.00;;;1.45;;
71423;SDS011;59240;51.370;-0.486;2023-04-03T01:55:22;13.13;;;1.23;;
71423;SDS011;59240;51.370;-0.486;2023-04-03T01:57:49;9.00;;;1.27;;
71423;SDS011;59240;51.370;-0.486;2023-04-03T02:00:16;7.30;;;1.20;;
71423;SDS011;59240;51.370;-0.486;2023-04-03T02:02:42;7.70;;;1.10;;
71423;SDS011;59240;51.370;-0.486;2023-04-03T02:05:09;7.18;;;1.05;;
71423;SDS011;59240;51.370;-0.486;2023-04-03T02:07:36;6.43;;;1.07;;
71423;SDS011;59240;51.370;-0.486;2023-04-03T02:10:02;8.43;;;1.50;;
71423;SDS011;59240;51.370;-0.486;2023-04-03T02:12:29;9.57;;;1.05;;
71423;SDS011;59240;51.370;-0.486;2023-04-03T02:14:55;6.15;;;1.13;;
71423;SDS011;59240;51.370;-0.486;2023-04-03T02:17:22;8.63;;;0.93;;
71423;SDS011;59240;51.370;-0.486;2023-04-03T02:19:49;10.33;;;0.70;;
71423;SDS011;59240;51.370;-0.486;2023-04-03T02:22:16;5.75;;;0.93;;
71423;SDS011;59240;51.370;-0.486;2023-04-03T02:24:42;5.03;;;1.10;;
71423;SDS011;59240;51.370;-0.486;2023-04-03T02:27:09;8.70;;;1.17;;
71423;SDS011;59240;51.370;-0.486;2023-04-03T02:29:36;6.35;;;1.30;;
71423;SDS011;59240;51.370;-0.486;2023-04-03T02:32:02;8.17;;;0.90;;
71423;SDS011;59240;51.370;-0.486;2023-04-03T02:34:29;11.98;;;1.10;;
71423;SDS011;59240;51.370;-0.486;2023-04-03T02:36:56;7.30;;;0.98;;
71423;SDS011;59240;51.370;-0.486;2023-04-03T02:39:23;9.43;;;1.10;;
71423;SDS011;59240;51.370;-0.486;2023-04-03T02:41:50;9.15;;;0.85;;
71423;SDS011;59240;51.370;-0.486;2023-04-03T02:44:16;7.87;;;1.10;;
71423;SDS011;59240;51.370;-0.486;2023-04-03T02:46:44;6.45;;;0.90;;
71423;SDS011;59240;51.370;-0.486;2023-04-03T02:49:10;7.60;;;1.30;;
71423;SDS011;59240;51.370;-0.486;2023-04-03T02:51:37;7.22;;;1.30;;
71423;SDS011;59240;51.370;-0.486;2023-04-03T02:54:04;9.48;;;1.15;;
71423;SDS011;59240;51.370;-0.486;2023-04-03T02:56:31;7.07;;;0.97;;
71423;SDS011;59240;51.370;-0.486;2023-04-03T02:58:57;8.45;;;1.42;;
71423;SDS011;59240;51.370;-0.486;2023-04-03T03:01:24;4.70;;;0.95;;
71423;SDS011;59240;51.370;-0.486;2023-04-03T03:03:51;10.32;;;1.60;;
71423;SDS011;59240;51.370;-0.486;2023-04-03T03:06:17;11.02;;;1.30;;
71423;SDS011;59240;51.370;-0.486;2023-04-03T03:08:44;8.50;;;1.70;;
71423;SDS011;59240;51.370;-0.486;2023-04-03T03:11:11;8.32;;;1.23;;
71423;SDS011;59240;51.370;-0.486;2023-04-03T03:13:38;6.75;;;1.48;;
71423;SDS011;59240;51.370;-0.486;2023-04-03T03:16:05;8.20;;;1.25;;
71423;SDS011;59240;51.370;-0.486;2023-04-03T03:18:32;6.00;;;1.52;;
71423;SDS011;59240;51.370;-0.486;2023-04-03T03:21:00;5.60;;;1.00;;
71423;SDS011;59240;51.370;-0.486;2023-04-03T03:23:29;6.57;;;1.02;;
71423;SDS011;59240;51.370;-0.486;2023-04-03T03:26:02;8.05;;;1.40;;
71423;SDS011;59240;51.370;-0.486;2023-04-03T03:28:33;5.97;;;1.13;;
71423;SDS011;59240;51.370;-0.486;2023-04-03T03:31:10;5.82;;;0.85;;
71423;SDS011;59240;51.370;-0.486;2023-04-03T03:33:37;7.77;;;1.13;;
71423;SDS011;59240;51.370;-0.486;2023-04-03T03:36:03;6.97;;;1.42;;
71423;SDS011;59240;51.370;-0.486;2023-04-03T03:38:30;8.18;;;1.30;;
71423;SDS011;59240;51.370;-0.486;2023-04-03T03:40:57;11.07;;;1.77;;
71423;SDS011;59240;51.370;-0.486;2023-04-03T03:43:24;9.40;;;1.35;;
71423;SDS011;59240;51.370;-0.486;2023-04-03T03:45:51;11.73;;;1.10;;
71423;SDS011;59240;51.370;-0.486;2023-04-03T03:48:19;7.25;;;1.27;;
71423;SDS011;59240;51.370;-0.486;2023-04-03T03:50:46;8.55;;;1.20;;
71423;SDS011;59240;51.370;-0.486;2023-04-03T03:53:15;6.97;;;1.30;;
71423;SDS011;59240;51.370;-0.486;2023-04-03T03:55:42;6.07;;;0.90;;
71423;SDS011;59240;51.370;-0.486;2023-04-03T03:58:09;6.63;;;1.20;;
71423;SDS011;59240;51.370;-0.486;2023-04-03T04:00:35;6.30;;;0.90;;
71423;SDS011;59240;51.370;-0.486;2023-04-03T04:03:02;8.68;;;1.20;;
71423;SDS011;59240;51.370;-0.486;2023-04-03T04:05:30;7.15;;;0.65;;
71423;SDS011;59240;51.370;-0.486;2023-04-03T04:07:57;5.40;;;0.85;;
71423;SDS011;59240;51.370;-0.486;2023-04-03T04:10:24;7.67;;;1.50;;
71423;SDS011;59240;51.370;-0.486;2023-04-03T04:12:50;5.80;;;0.73;;
71423;SDS011;59240;51.370;-0.486;2023-04-03T04:15:17;9.82;;;1.25;;
71423;SDS011;59240;51.370;-0.486;2023-04-03T04:17:44;11.85;;;1.55;;
71423;SDS011;59240;51.370;-0.486;2023-04-03T04:20:11;5.55;;;1.35;;
71423;SDS011;59240;51.370;-0.486;2023-04-03T04:22:38;9.17;;;1.40;;
71423;SDS011;59240;51.370;-0.486;2023-04-03T04:25:05;6.07;;;0.90;;
71423;SDS011;59240;51.370;-0.486;2023-04-03T04:27:32;6.57;;;1.20;;
71423;SDS011;59240;51.370;-0.486;2023-04-03T04:29:59;10.10;;;1.00;;
71423;SDS011;59240;51.370;-0.486;2023-04-03T04:32:26;8.57;;;0.80;;
71423;SDS011;59240;51.370;-0.486;2023-04-03T04:34:52;11.33;;;1.63;;
71423;SDS011;59240;51.370;-0.486;2023-04-03T04:37:19;10.23;;;1.30;;
71423;SDS011;59240;51.370;-0.486;2023-04-03T04:39:46;6.35;;;1.15;;
71423;SDS011;59240;51.370;-0.486;2023-04-03T04:42:12;10.50;;;1.10;;
71423;SDS011;59240;51.370;-0.486;2023-04-03T04:44:42;6.45;;;0.95;;
71423;SDS011;59240;51.370;-0.486;2023-04-03T04:47:09;8.43;;;1.03;;
71423;SDS011;59240;51.370;-0.486;2023-04-03T04:49:36;6.63;;;0.88;;
71423;SDS011;59240;51.370;-0.486;2023-04-03T04:52:03;6.38;;;1.13;;
71423;SDS011;59240;51.370;-0.486;2023-04-03T04:54:30;5.65;;;0.95;;
71423;SDS011;59240;51.370;-0.486;2023-04-03T04:56:57;8.50;;;1.25;;
71423;SDS011;59240;51.370;-0.486;2023-04-03T04:59:23;7.33;;;1.17;;
71423;SDS011;59240;51.370;-0.486;2023-04-03T05:01:50;7.13;;;1.10;;
71423;SDS011;59240;51.370;-0.486;2023-04-03T05:04:17;5.82;;;0.73;;
71423;SDS011;59240;51.370;-0.486;2023-04-03T05:06:45;6.07;;;1.08;;
71423;SDS011;59240;51.370;-0.486;2023-04-03T05:09:12;5.45;;;1.00;;
71423;SDS011;59240;51.370;-0.486;2023-04-03T05:11:39;9.83;;;1.30;;
71423;SDS011;59240;51.370;-0.486;2023-04-03T05:14:06;6.68;;;1.15;;
71423;SDS011;59240;51.370;-0.486;2023-04-03T05:16:33;7.15;;;1.15;;
71423;SDS011;59240;51.370;-0.486;2023-04-03T05:19:00;5.13;;;0.95;;
71423;SDS011;59240;51.370;-0.486;2023-04-03T05:21:26;8.40;;;1.08;;
71423;SDS011;59240;51.370;-0.486;2023-04-03T05:23:58;10.87;;;1.30;;
71423;SDS011;59240;51.370;-0.486;2023-04-03T05:26:30;14.90;;;1.30;;
71423;SDS011;59240;51.370;-0.486;2023-04-03T05:29:02;8.98;;;1.52;;
71423;SDS011;59240;51.370;-0.486;2023-04-03T05:31:29;11.20;;;1.13;;
71423;SDS011;59240;51.370;-0.486;2023-04-03T05:33:57;7.88;;;1.42;;
71423;SDS011;59240;51.370;-0.486;2023-04-03T05:36:28;8.43;;;1.20;;
71423;SDS011;59240;51.370;-0.486;2023-04-03T05:39:01;8.43;;;1.15;;
71423;SDS011;59240;51.370;-0.486;2023-04-03T05:41:28;14.70;;;1.45;;
71423;SDS011;59240;51.370;-0.486;2023-04-03T05:44:13;7.35;;;1.40;;
71423;SDS011;59240;51.370;-0.486;2023-04-03T05:47:01;7.93;;;1.38;;
71423;SDS011;59240;51.370;-0.486;2023-04-03T05:49:28;11.17;;;1.47;;
71423;SDS011;59240;51.370;-0.486;2023-04-03T05:51:55;6.63;;;1.55;;
71423;SDS011;59240;51.370;-0.486;2023-04-03T05:54:23;10.48;;;1.30;;
71423;SDS011;59240;51.370;-0.486;2023-04-03T05:56:55;5.22;;;1.13;;
71423;SDS011;59240;51.370;-0.486;2023-04-03T05:59:24;6.88;;;1.63;;
71423;SDS011;59240;51.370;-0.486;2023-04-03T06:01:54;7.03;;;1.40;;
71423;SDS011;59240;51.370;-0.486;2023-04-03T06:04:24;7.75;;;1.67;;
71423;SDS011;59240;51.370;-0.486;2023-04-03T06:06:56;11.10;;;1.40;;
71423;SDS011;59240;51.370;-0.486;2023-04-03T06:09:33;9.77;;;1.27;;
71423;SDS011;59240;51.370;-0.486;2023-04-03T06:12:03;11.68;;;1.35;;
71423;SDS011;59240;51.370;-0.486;2023-04-03T06:14:33;9.93;;;2.10;;
71423;SDS011;59240;51.370;-0.486;2023-04-03T06:17:03;7.72;;;1.92;;
71423;SDS011;59240;51.370;-0.486;2023-04-03T06:19:33;10.52;;;1.65;;
71423;SDS011;59240;51.370;-0.486;2023-04-03T06:22:00;9.05;;;1.98;;
71423;SDS011;59240;51.370;-0.486;2023-04-03T06:24:27;12.20;;;2.05;;
71423;SDS011;59240;51.370;-0.486;2023-04-03T06:26:54;16.17;;;1.93;;
71423;SDS011;59240;51.370;-0.486;2023-04-03T06:29:24;12.60;;;1.80;;
71423;SDS011;59240;51.370;-0.486;2023-04-03T06:31:53;10.10;;;2.00;;
71423;SDS011;59240;51.370;-0.486;2023-04-03T06:38:58;6.03;;;1.48;;
71423;SDS011;59240;51.370;-0.486;2023-04-03T06:41:43;11.93;;;2.00;;
71423;SDS011;59240;51.370;-0.486;2023-04-03T06:44:12;10.63;;;2.03;;
71423;SDS011;59240;51.370;-0.486;2023-04-03T06:46:58;7.75;;;1.58;;
71423;SDS011;59240;51.370;-0.486;2023-04-03T06:49:25;12.82;;;2.05;;
71423;SDS011;59240;51.370;-0.486;2023-04-03T06:51:52;9.85;;;2.60;;
71423;SDS011;59240;51.370;-0.486;2023-04-03T06:54:34;9.03;;;2.10;;
71423;SDS011;59240;51.370;-0.486;2023-04-03T07:08:16;11.75;;;2.40;;
71423;SDS011;59240;51.370;-0.486;2023-04-03T07:11:16;7.43;;;2.00;;
71423;SDS011;59240;51.370;-0.486;2023-04-03T07:13:49;12.05;;;1.63;;
71423;SDS011;59240;51.370;-0.486;2023-04-03T07:16:19;10.27;;;2.03;;
71423;SDS011;59240;51.370;-0.486;2023-04-03T07:22:09;6.38;;;1.48;;
71423;SDS011;59240;51.370;-0.486;2023-04-03T07:25:09;9.13;;;1.67;;
71423;SDS011;59240;51.370;-0.486;2023-04-03T07:27:55;17.67;;;1.73;;
71423;SDS011;59240;51.370;-0.486;2023-04-03T07:30:31;8.63;;;1.80;;
71423;SDS011;59240;51.370;-0.486;2023-04-03T07:33:08;9.93;;;2.40;;
71423;SDS011;59240;51.370;-0.486;2023-04-03T07:39:20;9.03;;;2.33;;
71423;SDS011;59240;51.370;-0.486;2023-04-03T07:48:36;11.10;;;1.77;;
71423;SDS011;59240;51.370;-0.486;2023-04-03T07:51:55;8.57;;;1.80;;
71423;SDS011;59240;51.370;-0.486;2023-04-03T07:54:30;11.43;;;2.40;;
71423;SDS011;59240;51.370;-0.486;2023-04-03T07:58:06;9.30;;;2.30;;
71423;SDS011;59240;51.370;-0.486;2023-04-03T08:00:49;10.88;;;2.50;;
71423;SDS011;59240;51.370;-0.486;2023-04-03T08:03:39;8.52;;;2.42;;
71423;SDS011;59240;51.370;-0.486;2023-04-03T08:06:34;15.50;;;2.97;;
71423;SDS011;59240;51.370;-0.486;2023-04-03T08:13:42;11.63;;;2.45;;
71423;SDS011;59240;51.370;-0.486;2023-04-03T08:16:30;6.72;;;1.55;;
71423;SDS011;59240;51.370;-0.486;2023-04-03T08:19:48;11.18;;;2.15;;
71423;SDS011;59240;51.370;-0.486;2023-04-03T08:22:29;17.13;;;2.40;;
71423;SDS011;59240;51.370;-0.486;2023-04-03T08:26:16;11.57;;;2.80;;
71423;SDS011;59240;51.370;-0.486;2023-04-03T08:29:46;10.52;;;2.35;;
71423;SDS011;59240;51.370;-0.486;2023-04-03T08:58:54;8.73;;;3.00;;
71423;SDS011;59240;51.370;-0.486;2023-04-03T09:17:35;10.55;;;3.13;;
71423;SDS011;59240;51.370;-0.486;2023-04-03T09:23:45;14.90;;;3.30;;
71423;SDS011;59240;51.370;-0.486;2023-04-03T09:26:45;12.73;;;3.53;;
71423;SDS011;59240;51.370;-0.486;2023-04-03T09:29:20;9.93;;;2.92;;
71423;SDS011;59240;51.370;-0.486;2023-04-03T09:31:56;10.80;;;3.47;;
71423;SDS011;59240;51.370;-0.486;2023-04-03T09:34:37;11.57;;;3.20;;
71423;SDS011;59240;51.370;-0.486;2023-04-03T09:37:09;9.13;;;3.33;;
71423;SDS011;59240;51.370;-0.486;2023-04-03T09:39:52;9.90;;;3.53;;
71423;SDS011;59240;51.370;-0.486;2023-04-03T09:42:23;10.55;;;4.07;;
71423;SDS011;59240;51.370;-0.486;2023-04-03T09:48:52;11.50;;;3.13;;
71423;SDS011;59240;51.370;-0.486;2023-04-03T09:52:22;10.45;;;3.75;;
71423;SDS011;59240;51.370;-0.486;2023-04-03T09:59:44;10.43;;;3.95;;
71423;SDS011;59240;51.370;-0.486;2023-04-03T10:10:20;10.70;;;3.28;;
71423;SDS011;59240;51.370;-0.486;2023-04-03T10:13:03;9.80;;;3.55;;
71423;SDS011;59240;51.370;-0.486;2023-04-03T10:15:41;10.23;;;3.83;;
71423;SDS011;59240;51.370;-0.486;2023-04-03T10:18:40;11.63;;;3.70;;
71423;SDS011;59240;51.370;-0.486;2023-04-03T10:25:02;9.38;;;3.10;;
71423;SDS011;59240;51.370;-0.486;2023-04-03T10:27:47;7.47;;;3.45;;
71423;SDS011;59240;51.370;-0.486;2023-04-03T10:37:13;11.87;;;3.93;;
71423;SDS011;59240;51.370;-0.486;2023-04-03T10:46:27;9.80;;;3.65;;
71423;SDS011;59240;51.370;-0.486;2023-04-03T10:55:36;9.40;;;3.13;;
71423;SDS011;59240;51.370;-0.486;2023-04-03T10:58:32;10.73;;;3.58;;
71423;SDS011;59240;51.370;-0.486;2023-04-03T11:01:21;7.45;;;2.88;;
71423;SDS011;59240;51.370;-0.486;2023-04-03T11:04:09;7.22;;;2.35;;
71423;SDS011;59240;51.370;-0.486;2023-04-03T11:06:46;8.90;;;3.00;;
71423;SDS011;59240;51.370;-0.486;2023-04-03T11:09:33;9.68;;;2.95;;
71423;SDS011;59240;51.370;-0.486;2023-04-03T11:16:45;9.15;;;3.28;;
71423;SDS011;59240;51.370;-0.486;2023-04-03T11:23:05;9.23;;;2.70;;
71423;SDS011;59240;51.370;-0.486;2023-04-03T11:26:14;7.78;;;2.90;;
71423;SDS011;59240;51.370;-0.486;2023-04-03T11:28:46;7.97;;;2.85;;
71423;SDS011;59240;51.370;-0.486;2023-04-03T11:31:33;8.20;;;2.83;;
71423;SDS011;59240;51.370;-0.486;2023-04-03T11:34:26;6.50;;;2.60;;
71423;SDS011;59240;51.370;-0.486;2023-04-03T11:37:12;9.33;;;2.73;;
71423;SDS011;59240;51.370;-0.486;2023-04-03T11:43:27;7.70;;;2.47;;
71423;SDS011;59240;51.370;-0.486;2023-04-03T11:46:05;8.02;;;2.75;;
71423;SDS011;59240;51.370;-0.486;2023-04-03T11:49:00;7.97;;;2.55;;
71423;SDS011;59240;51.370;-0.486;2023-04-03T11:51:37;11.30;;;3.00;;
71423;SDS011;59240;51.370;-0.486;2023-04-03T11:57:43;9.27;;;2.65;;
71423;SDS011;59240;51.370;-0.486;2023-04-03T12:07:18;7.97;;;2.43;;
71423;SDS011;59240;51.370;-0.486;2023-04-03T12:10:16;7.55;;;2.40;;
71423;SDS011;59240;51.370;-0.486;2023-04-03T12:13:00;8.00;;;2.55;;
71423;SDS011;59240;51.370;-0.486;2023-04-03T12:21:16;7.80;;;2.53;;
71423;SDS011;59240;51.370;-0.486;2023-04-03T12:30:25;8.98;;;2.38;;
71423;SDS011;59240;51.370;-0.486;2023-04-03T12:48:49;8.02;;;2.47;;
71423;SDS011;59240;51.370;-0.486;2023-04-03T12:51:47;6.67;;;2.10;;
71423;SDS011;59240;51.370;-0.486;2023-04-03T12:54:52;6.78;;;2.22;;
71423;SDS011;59240;51.370;-0.486;2023-04-03T12:58:24;6.55;;;2.40;;
71423;SDS011;59240;51.370;-0.486;2023-04-03T13:05:28;5.57;;;1.90;;
71423;SDS011;59240;51.370;-0.486;2023-04-03T13:08:22;7.63;;;2.20;;
71423;SDS011;59240;51.370;-0.486;2023-04-03T13:10:55;8.30;;;2.13;;
71423;SDS011;59240;51.370;-0.486;2023-04-03T13:14:16;8.70;;;2.17;;
71423;SDS011;59240;51.370;-0.486;2023-04-03T13:17:37;11.13;;;2.13;;
71423;SDS011;59240;51.370;-0.486;2023-04-03T13:27:29;7.32;;;2.10;;
71423;SDS011;59240;51.370;-0.486;2023-04-03T13:30:26;7.97;;;1.83;;
71423;SDS011;59240;51.370;-0.486;2023-04-03T13:33:06;10.05;;;2.00;;
71423;SDS011;59240;51.370;-0.486;2023-04-03T13:36:54;10.25;;;1.85;;
71423;SDS011;59240;51.370;-0.486;2023-04-03T13:42:14;14.00;;;5.60;;
71423;SDS011;59240;51.370;-0.486;2023-04-03T13:47:53;22.65;;;4.45;;
71423;SDS011;59240;51.370;-0.486;2023-04-03T13:53:27;7.43;;;1.90;;
71423;SDS011;59240;51.370;-0.486;2023-04-03T13:55:58;8.10;;;2.05;;
71423;SDS011;59240;51.370;-0.486;2023-04-03T13:58:27;7.35;;;2.47;;
71423;SDS011;59240;51.370;-0.486;2023-04-03T14:01:45;6.13;;;2.00;;
71423;SDS011;59240;51.370;-0.486;2023-04-03T14:04:52;7.30;;;2.25;;
71423;SDS011;59240;51.370;-0.486;2023-04-03T14:07:30;6.47;;;2.50;;
71423;SDS011;59240;51.370;-0.486;2023-04-03T14:10:12;9.45;;;2.42;;
71423;SDS011;59240;51.370;-0.486;2023-04-03T14:13:16;7.90;;;2.80;;
71423;SDS011;59240;51.370;-0.486;2023-04-03T14:18:48;7.05;;;2.42;;
71423;SDS011;59240;51.370;-0.486;2023-04-03T14:21:54;7.60;;;2.20;;
71423;SDS011;59240;51.370;-0.486;2023-04-03T14:24:42;5.65;;;1.85;;
71423;SDS011;59240;51.370;-0.486;2023-04-03T14:33:59;8.18;;;1.92;;
71423;SDS011;59240;51.370;-0.486;2023-04-03T14:36:27;8.30;;;1.90;;
71423;SDS011;59240;51.370;-0.486;2023-04-03T14:39:00;8.13;;;2.45;;
71423;SDS011;59240;51.370;-0.486;2023-04-03T14:41:42;7.22;;;2.45;;
71423;SDS011;59240;51.370;-0.486;2023-04-03T14:44:09;5.75;;;2.03;;
71423;SDS011;59240;51.370;-0.486;2023-04-03T14:46:41;6.40;;;1.50;;
71423;SDS011;59240;51.370;-0.486;2023-04-03T14:50:10;6.67;;;1.90;;
71423;SDS011;59240;51.370;-0.486;2023-04-03T14:52:58;6.70;;;1.80;;
71423;SDS011;59240;51.370;-0.486;2023-04-03T14:55:26;7.05;;;1.88;;
71423;SDS011;59240;51.370;-0.486;2023-04-03T14:57:56;7.18;;;1.95;;
71423;SDS011;59240;51.370;-0.486;2023-04-03T15:00:26;6.03;;;1.70;;
71423;SDS011;59240;51.370;-0.486;2023-04-03T15:02:53;5.90;;;1.63;;
71423;SDS011;59240;51.370;-0.486;2023-04-03T15:05:20;6.22;;;2.00;;
71423;SDS011;59240;51.370;-0.486;2023-04-03T15:14:20;6.93;;;1.88;;
71423;SDS011;59240;51.370;-0.486;2023-04-03T15:17:05;7.33;;;1.90;;
71423;SDS011;59240;51.370;-0.486;2023-04-03T15:19:36;7.47;;;1.92;;
71423;SDS011;59240;51.370;-0.486;2023-04-03T15:22:08;6.70;;;2.00;;
71423;SDS011;59240;51.370;-0.486;2023-04-03T15:24:50;6.38;;;1.55;;
71423;SDS011;59240;51.370;-0.486;2023-04-03T15:27:18;6.07;;;1.60;;
71423;SDS011;59240;51.370;-0.486;2023-04-03T15:30:05;7.13;;;1.87;;
71423;SDS011;59240;51.370;-0.486;2023-04-03T15:33:18;7.70;;;1.80;;
71423;SDS011;59240;51.370;-0.486;2023-04-03T15:36:01;7.40;;;1.92;;
71423;SDS011;59240;51.370;-0.486;2023-04-03T15:38:58;9.25;;;1.77;;
71423;SDS011;59240;51.370;-0.486;2023-04-03T15:41:30;6.70;;;1.52;;
71423;SDS011;59240;51.370;-0.486;2023-04-03T15:44:04;5.80;;;1.60;;
71423;SDS011;59240;51.370;-0.486;2023-04-03T15:46:37;5.40;;;1.42;;
71423;SDS011;59240;51.370;-0.486;2023-04-03T15:49:05;7.68;;;1.92;;
71423;SDS011;59240;51.370;-0.486;2023-04-03T15:51:57;7.35;;;1.85;;
71423;SDS011;59240;51.370;-0.486;2023-04-03T15:57:26;6.33;;;1.43;;
71423;SDS011;59240;51.370;-0.486;2023-04-03T16:00:02;7.28;;;1.80;;
71423;SDS011;59240;51.370;-0.486;2023-04-03T16:02:34;6.13;;;1.30;;
71423;SDS011;59240;51.370;-0.486;2023-04-03T16:05:10;6.22;;;1.50;;
71423;SDS011;59240;51.370;-0.486;2023-04-03T16:07:39;5.47;;;1.20;;
71423;SDS011;59240;51.370;-0.486;2023-04-03T16:10:10;7.50;;;2.13;;
71423;SDS011;59240;51.370;-0.486;2023-04-03T16:12:48;6.10;;;1.48;;
71423;SDS011;59240;51.370;-0.486;2023-04-03T16:15:14;6.88;;;1.52;;
71423;SDS011;59240;51.370;-0.486;2023-04-03T16:17:44;5.65;;;1.55;;
71423;SDS011;59240;51.370;-0.486;2023-04-03T16:20:59;6.28;;;1.42;;
71423;SDS011;59240;51.370;-0.486;2023-04-03T16:23:44;6.17;;;1.20;;
71423;SDS011;59240;51.370;-0.486;2023-04-03T16:26:31;6.70;;;1.33;;
71423;SDS011;59240;51.370;-0.486;2023-04-03T16:29:15;6.88;;;1.30;;
71423;SDS011;59240;51.370;-0.486;2023-04-03T16:31:42;7.20;;;1.70;;
71423;SDS011;59240;51.370;-0.486;2023-04-03T16:34:15;6.60;;;1.73;;
71423;SDS011;59240;51.370;-0.486;2023-04-03T16:36:52;5.97;;;1.43;;
71423;SDS011;59240;51.370;-0.486;2023-04-03T16:39:19;6.13;;;1.50;;
71423;SDS011;59240;51.370;-0.486;2023-04-03T16:41:48;7.10;;;1.50;;
71423;SDS011;59240;51.370;-0.486;2023-04-03T16:44:15;5.75;;;1.30;;
71423;SDS011;59240;51.370;-0.486;2023-04-03T16:46:44;10.88;;;4.07;;
71423;SDS011;59240;51.370;-0.486;2023-04-03T16:49:16;14.30;;;7.03;;
71423;SDS011;59240;51.370;-0.486;2023-04-03T16:51:47;8.07;;;2.72;;
71423;SDS011;59240;51.370;-0.486;2023-04-03T16:54:14;6.97;;;1.48;;
71423;SDS011;59240;51.370;-0.486;2023-04-03T16:56:49;6.40;;;1.33;;
71423;SDS011;59240;51.370;-0.486;2023-04-03T16:59:15;4.20;;;1.15;;
71423;SDS011;59240;51.370;-0.486;2023-04-03T17:01:47;5.63;;;1.70;;
71423;SDS011;59240;51.370;-0.486;2023-04-03T17:04:14;5.90;;;1.63;;
71423;SDS011;59240;51.370;-0.486;2023-04-03T17:06:41;7.32;;;1.50;;
71423;SDS011;59240;51.370;-0.486;2023-04-03T17:09:15;7.55;;;1.90;;
71423;SDS011;59240;51.370;-0.486;2023-04-03T17:11:44;8.23;;;2.22;;
71423;SDS011;59240;51.370;-0.486;2023-04-03T17:14:35;5.13;;;1.50;;
71423;SDS011;59240;51.370;-0.486;2023-04-03T17:17:18;6.75;;;1.60;;
71423;SDS011;59240;51.370;-0.486;2023-04-03T17:19:58;8.00;;;1.48;;
71423;SDS011;59240;51.370;-0.486;2023-04-03T17:22:40;5.57;;;1.10;;
71423;SDS011;59240;51.370;-0.486;2023-04-03T17:25:07;5.97;;;1.35;;
71423;SDS011;59240;51.370;-0.486;2023-04-03T17:27:38;7.40;;;1.40;;
71423;SDS011;59240;51.370;-0.486;2023-04-03T17:30:08;6.13;;;1.40;;
71423;SDS011;59240;51.370;-0.486;2023-04-03T17:32:36;5.10;;;1.10;;
71423;SDS011;59240;51.370;-0.486;2023-04-03T17:35:06;3.72;;;0.47;;
71423;SDS011;59240;51.370;-0.486;2023-04-03T17:37:37;3.50;;;0.63;;
71423;SDS011;59240;51.370;-0.486;2023-04-03T17:40:07;7.07;;;2.03;;
71423;SDS011;59240;51.370;-0.486;2023-04-03T17:42:34;3.75;;;0.70;;
71423;SDS011;59240;51.370;-0.486;2023-04-03T17:45:01;5.75;;;0.88;;
71423;SDS011;59240;51.370;-0.486;2023-04-03T17:47:28;7.68;;;0.95;;
71423;SDS011;59240;51.370;-0.486;2023-04-03T17:50:10;3.92;;;0.60;;
71423;SDS011;59240;51.370;-0.486;2023-04-03T17:52:42;4.47;;;0.93;;
71423;SDS011;59240;51.370;-0.486;2023-04-03T17:55:09;5.47;;;0.90;;
71423;SDS011;59240;51.370;-0.486;2023-04-03T17:57:43;4.97;;;0.88;;
71423;SDS011;59240;51.370;-0.486;2023-04-03T18:00:10;5.75;;;1.30;;
71423;SDS011;59240;51.370;-0.486;2023-04-03T18:02:38;5.85;;;1.20;;
71423;SDS011;59240;51.370;-0.486;2023-04-03T18:05:14;5.80;;;1.27;;
71423;SDS011;59240;51.370;-0.486;2023-04-03T18:07:41;6.45;;;1.25;;
71423;SDS011;59240;51.370;-0.486;2023-04-03T18:10:10;5.57;;;1.08;;
71423;SDS011;59240;51.370;-0.486;2023-04-03T18:12:39;7.25;;;0.90;;
71423;SDS011;59240;51.370;-0.486;2023-04-03T18:15:07;3.97;;;0.98;;
71423;SDS011;59240;51.370;-0.486;2023-04-03T18:17:34;5.53;;;1.07;;
71423;SDS011;59240;51.370;-0.486;2023-04-03T18:20:01;4.63;;;0.90;;
71423;SDS011;59240;51.370;-0.486;2023-04-03T18:22:28;5.20;;;0.80;;
71423;SDS011;59240;51.370;-0.486;2023-04-03T18:24:57;5.20;;;1.38;;
71423;SDS011;59240;51.370;-0.486;2023-04-03T18:27:31;4.55;;;0.70;;
71423;SDS011;59240;51.370;-0.486;2023-04-03T18:29:59;6.07;;;1.00;;
71423;SDS011;59240;51.370;-0.486;2023-04-03T18:32:28;6.13;;;1.10;;
71423;SDS011;59240;51.370;-0.486;2023-04-03T18:34:55;6.68;;;0.90;;
71423;SDS011;59240;51.370;-0.486;2023-04-03T18:37:24;7.30;;;2.25;;
71423;SDS011;59240;51.370;-0.486;2023-04-03T18:40:00;8.32;;;1.73;;
71423;SDS011;59240;51.370;-0.486;2023-04-03T18:42:27;5.97;;;0.90;;
71423;SDS011;59240;51.370;-0.486;2023-04-03T18:44:57;9.05;;;1.13;;
71423;SDS011;59240;51.370;-0.486;2023-04-03T18:47:46;3.70;;;0.55;;
71423;SDS011;59240;51.370;-0.486;2023-04-03T18:50:53;3.25;;;0.52;;
71423;SDS011;59240;51.370;-0.486;2023-04-03T18:53:30;5.40;;;0.80;;
71423;SDS011;59240;51.370;-0.486;2023-04-03T18:55:56;5.43;;;0.70;;
71423;SDS011;59240;51.370;-0.486;2023-04-03T18:58:24;5.82;;;0.80;;
71423;SDS011;59240;51.370;-0.486;2023-04-03T19:00:53;10.75;;;1.58;;
71423;SDS011;59240;51.370;-0.486;2023-04-03T19:03:22;6.88;;;1.15;;
71423;SDS011;59240;51.370;-0.486;2023-04-03T19:05:49;5.45;;;0.93;;
71423;SDS011;59240;51.370;-0.486;2023-04-03T19:08:19;8.03;;;1.17;;
71423;SDS011;59240;51.370;-0.486;2023-04-03T19:10:47;5.75;;;1.25;;